Time;durP1;ratioP1;P1;durP2;ratioP2;P2;SDS_P1;SDS_P2;PMS_P1;PMS_P2;Temp;Humidity;BMP_temperature;BMP_pressure;BME280_temperature;BME280_humidity;BME280_pressure;Samples;Min_cycle;Max_cycle;Signal;HPM_P1;HPM_P2
2023/09/08 00:00:09;;;;;;;7.32;6.00;;;;;;;;;;5092649;28;20019;-49
2023/09/08 00:02:35;;;;;;;10.07;6.15;;;;;;;;;;5094529;28;20023;-47
2023/09/08 00:05:01;;;;;;;8.20;5.57;;;;;;;;;;5094408;28;20028;-45
2023/09/08 00:07:27;;;;;;;7.40;5.80;;;;;;;;;;5094476;28;20020;-47
2023/09/08 00:09:53;;;;;;;12.05;5.93;;;;;;;;;;5094202;28;20389;-49
2023/09/08 00:12:19;;;;;;;11.88;6.88;;;;;;;;;;5094037;28;20032;-49
2023/09/08 00:14:45;;;;;;;6.43;5.78;;;;;;;;;;5094187;28;20020;-45
2023/09/08 00:17:11;;;;;;;12.40;7.05;;;;;;;;;;5094039;28;20475;-47
2023/09/08 00:19:38;;;;;;;11.60;6.63;;;;;;;;;;5094222;28;20062;-49
2023/09/08 00:22:05;;;;;;;8.98;6.70;;;;;;;;;;5094190;28;20028;-48
2023/09/08 00:24:31;;;;;;;10.48;6.25;;;;;;;;;;5094130;28;20099;-52
2023/09/08 00:26:57;;;;;;;11.95;6.93;;;;;;;;;;5093938;28;20023;-46
2023/09/08 00:29:23;;;;;;;9.65;7.10;;;;;;;;;;5093844;28;20026;-51
2023/09/08 00:31:49;;;;;;;10.82;8.18;;;;;;;;;;5093782;28;20036;-45
2023/09/08 00:34:15;;;;;;;10.25;7.93;;;;;;;;;;5093896;28;20016;-49
2023/09/08 00:36:41;;;;;;;10.73;7.70;;;;;;;;;;5093669;28;20035;-46
2023/09/08 00:39:07;;;;;;;9.43;8.15;;;;;;;;;;5093660;28;20016;-51
2023/09/08 00:41:34;;;;;;;10.35;8.23;;;;;;;;;;5093839;28;20047;-50
2023/09/08 00:44:00;;;;;;;11.13;9.13;;;;;;;;;;5093321;28;20373;-49
2023/09/08 00:46:27;;;;;;;10.48;8.68;;;;;;;;;;5089041;28;20092;-48
2023/09/08 00:48:53;;;;;;;11.45;8.23;;;;;;;;;;5093254;28;20048;-47
2023/09/08 00:51:19;;;;;;;16.08;9.77;;;;;;;;;;5098504;28;20032;-50
2023/09/08 00:53:46;;;;;;;11.52;9.50;;;;;;;;;;5102412;28;20020;-50
2023/09/08 00:56:12;;;;;;;11.65;10.00;;;;;;;;;;5093301;28;20043;-48
2023/09/08 00:58:38;;;;;;;13.05;9.73;;;;;;;;;;5098777;28;20077;-47
2023/09/08 01:01:05;;;;;;;13.82;9.98;;;;;;;;;;5102142;28;20028;-53
2023/09/08 01:03:32;;;;;;;14.80;10.15;;;;;;;;;;5093224;28;20473;-46
2023/09/08 01:05:58;;;;;;;11.05;9.95;;;;;;;;;;5093261;28;20030;-49
2023/09/08 01:08:25;;;;;;;18.50;11.57;;;;;;;;;;5093162;28;20016;-50
2023/09/08 01:10:52;;;;;;;13.15;10.25;;;;;;;;;;5093422;28;20085;-46
2023/09/08 01:13:18;;;;;;;13.88;9.68;;;;;;;;;;5093359;28;20028;-46
2023/09/08 01:15:43;;;;;;;13.35;11.35;;;;;;;;;;5092689;28;20051;-50
2023/09/08 01:18:10;;;;;;;14.27;11.27;;;;;;;;;;5092660;28;20052;-50
2023/09/08 01:21:05;;;;;;;16.00;11.50;;;;;;;;;;5092228;28;20023;-50
2023/09/08 01:23:50;;;;;;;17.48;12.80;;;;;;;;;;5091853;28;20012;-46
2023/09/08 01:26:18;;;;;;;15.45;12.75;;;;;;;;;;5092128;28;20023;-45
2023/09/08 01:28:45;;;;;;;19.98;12.38;;;;;;;;;;5092137;28;20071;-48
2023/09/08 01:31:11;;;;;;;16.58;12.73;;;;;;;;;;5092156;28;20072;-47
2023/09/08 01:33:38;;;;;;;18.35;12.38;;;;;;;;;;5092119;28;20020;-46
2023/09/08 01:36:04;;;;;;;14.27;11.75;;;;;;;;;;5092089;28;20028;-47
2023/09/08 01:38:30;;;;;;;15.15;12.55;;;;;;;;;;5092097;28;20057;-48
2023/09/08 01:40:56;;;;;;;16.50;11.75;;;;;;;;;;5088535;28;20434;-47
2023/09/08 01:43:22;;;;;;;13.88;11.65;;;;;;;;;;5132693;28;20110;-45
2023/09/08 01:45:48;;;;;;;14.18;11.93;;;;;;;;;;5120649;28;20023;-46
2023/09/08 01:48:14;;;;;;;14.93;12.07;;;;;;;;;;5101069;28;20402;-45
2023/09/08 01:50:40;;;;;;;16.33;12.07;;;;;;;;;;5121570;28;20027;-45
2023/09/08 01:53:06;;;;;;;13.32;11.70;;;;;;;;;;5092628;28;20024;-46
2023/09/08 01:55:32;;;;;;;13.02;11.60;;;;;;;;;;5092825;28;20020;-48
2023/09/08 01:57:58;;;;;;;15.90;11.63;;;;;;;;;;5099016;28;20445;-51
2023/09/08 02:00:24;;;;;;;14.65;12.05;;;;;;;;;;5112091;28;20027;-52
2023/09/08 02:02:50;;;;;;;15.65;11.48;;;;;;;;;;5092516;28;20535;-51
2023/09/08 02:05:16;;;;;;;14.98;11.40;;;;;;;;;;5092529;28;20024;-47
2023/09/08 02:07:42;;;;;;;15.40;11.05;;;;;;;;;;5092471;28;20031;-47
2023/09/08 02:10:10;;;;;;;14.88;11.75;;;;;;;;;;5092516;28;20385;-47
2023/09/08 02:12:36;;;;;;;13.73;11.45;;;;;;;;;;5092599;28;20089;-51
2023/09/08 02:15:02;;;;;;;12.57;11.07;;;;;;;;;;5101324;28;20027;-51
2023/09/08 02:17:29;;;;;;;14.77;11.48;;;;;;;;;;5111662;28;20507;-48
2023/09/08 02:19:55;;;;;;;16.00;11.32;;;;;;;;;;5092361;28;20024;-52
2023/09/08 02:22:21;;;;;;;11.93;10.75;;;;;;;;;;5096486;28;20028;-49
2023/09/08 02:24:47;;;;;;;12.82;10.60;;;;;;;;;;5096225;28;20484;-50
2023/09/08 02:27:13;;;;;;;12.70;10.07;;;;;;;;;;5096408;28;20012;-51
2023/09/08 02:29:39;;;;;;;15.60;11.38;;;;;;;;;;5122203;27;20468;-53
2023/09/08 02:32:05;;;;;;;13.43;10.43;;;;;;;;;;5099296;28;20067;-48
2023/09/08 02:34:36;;;;;;;12.38;11.02;;;;;;;;;;5105474;28;20059;-50
2023/09/08 02:37:02;;;;;;;13.50;11.27;;;;;;;;;;5095929;28;20024;-50
2023/09/08 02:39:28;;;;;;;15.05;11.43;;;;;;;;;;5096000;28;20035;-50
2023/09/08 02:41:54;;;;;;;11.93;10.75;;;;;;;;;;5095864;28;20032;-50
2023/09/08 02:44:23;;;;;;;12.40;11.25;;;;;;;;;;5095700;28;20050;-49
2023/09/08 02:46:49;;;;;;;12.68;11.00;;;;;;;;;;5095503;28;20052;-53
2023/09/08 02:49:16;;;;;;;13.13;10.38;;;;;;;;;;5103045;27;20020;-50
2023/09/08 02:51:42;;;;;;;13.68;10.85;;;;;;;;;;5113380;27;20036;-52
2023/09/08 02:54:08;;;;;;;12.10;10.45;;;;;;;;;;5095806;28;20041;-50
2023/09/08 02:56:34;;;;;;;11.60;10.50;;;;;;;;;;5095591;28;20539;-47
2023/09/08 02:59:00;;;;;;;14.10;10.77;;;;;;;;;;5095378;28;20027;-47
2023/09/08 03:01:26;;;;;;;13.02;11.05;;;;;;;;;;5095515;28;20107;-46
2023/09/08 03:03:52;;;;;;;12.48;11.25;;;;;;;;;;5095507;28;20026;-45
2023/09/08 03:06:20;;;;;;;13.27;11.13;;;;;;;;;;5095315;28;20029;-46
2023/09/08 03:08:46;;;;;;;12.80;10.93;;;;;;;;;;5095385;28;20059;-46
2023/09/08 03:11:11;;;;;;;13.48;12.07;;;;;;;;;;5095187;28;20066;-46
2023/09/08 03:13:38;;;;;;;14.40;11.40;;;;;;;;;;5095483;28;20020;-46
2023/09/08 03:16:07;;;;;;;18.45;11.50;;;;;;;;;;5095079;28;20024;-49
2023/09/08 03:18:36;;;;;;;12.80;11.50;;;;;;;;;;5112197;27;20023;-46
2023/09/08 03:21:08;;;;;;;13.45;11.88;;;;;;;;;;5105777;27;20124;-47
2023/09/08 03:23:34;;;;;;;13.05;10.63;;;;;;;;;;5095313;28;20032;-47
2023/09/08 03:26:00;;;;;;;11.68;10.43;;;;;;;;;;5097128;28;20020;-47
2023/09/08 03:28:26;;;;;;;13.10;11.18;;;;;;;;;;5096918;28;20034;-47
2023/09/08 03:30:52;;;;;;;13.30;11.68;;;;;;;;;;5103227;28;20488;-50
2023/09/08 03:33:18;;;;;;;11.70;10.52;;;;;;;;;;5094740;28;20017;-49
2023/09/08 03:35:44;;;;;;;13.65;12.25;;;;;;;;;;5094838;28;20131;-48
2023/09/08 03:38:10;;;;;;;13.50;11.15;;;;;;;;;;5123397;27;20030;-51
2023/09/08 03:40:37;;;;;;;15.40;11.20;;;;;;;;;;5097200;28;20426;-51
2023/09/08 03:43:03;;;;;;;11.85;10.65;;;;;;;;;;5100742;28;20024;-47
2023/09/08 03:45:29;;;;;;;17.40;12.32;;;;;;;;;;5094866;28;20038;-50
2023/09/08 03:47:55;;;;;;;15.98;10.95;;;;;;;;;;5094530;28;20040;-51
2023/09/08 03:50:21;;;;;;;13.88;11.77;;;;;;;;;;5123165;27;20023;-49
2023/09/08 03:52:47;;;;;;;15.80;11.15;;;;;;;;;;5094519;28;20085;-48
2023/09/08 03:55:13;;;;;;;14.15;11.70;;;;;;;;;;5094488;28;20025;-48
2023/09/08 03:57:39;;;;;;;14.00;11.40;;;;;;;;;;5094303;28;20024;-47
2023/09/08 04:00:06;;;;;;;16.23;11.82;;;;;;;;;;5094487;28;20035;-51
2023/09/08 04:02:33;;;;;;;15.13;11.52;;;;;;;;;;5094329;28;20024;-45
2023/09/08 04:04:59;;;;;;;14.00;10.68;;;;;;;;;;5094319;28;20473;-52
2023/09/08 04:07:25;;;;;;;12.95;10.75;;;;;;;;;;5094373;28;20035;-50
2023/09/08 04:09:51;;;;;;;12.95;11.30;;;;;;;;;;5096259;28;20028;-50
2023/09/08 04:12:17;;;;;;;12.60;11.35;;;;;;;;;;5096138;28;20027;-46
2023/09/08 04:14:43;;;;;;;12.32;11.10;;;;;;;;;;5095360;28;20022;-47
2023/09/08 04:17:09;;;;;;;12.05;10.77;;;;;;;;;;5094309;28;20024;-47
2023/09/08 04:19:35;;;;;;;13.02;10.65;;;;;;;;;;5093939;28;20123;-45
2023/09/08 04:22:01;;;;;;;12.95;11.18;;;;;;;;;;5093997;28;20027;-51
2023/09/08 04:24:27;;;;;;;13.10;11.80;;;;;;;;;;5095103;28;20038;-47
2023/09/08 04:26:53;;;;;;;14.77;11.60;;;;;;;;;;5108135;27;20030;-48
2023/09/08 04:29:19;;;;;;;15.35;11.30;;;;;;;;;;5108302;27;20537;-48
2023/09/08 04:31:45;;;;;;;17.15;12.65;;;;;;;;;;5093694;28;20058;-48
2023/09/08 04:34:11;;;;;;;14.88;13.18;;;;;;;;;;5093710;28;20020;-48
2023/09/08 04:36:37;;;;;;;15.00;12.50;;;;;;;;;;5122296;27;20115;-45
2023/09/08 04:39:03;;;;;;;15.05;12.80;;;;;;;;;;5093639;28;20024;-52
2023/09/08 04:41:29;;;;;;;13.40;12.05;;;;;;;;;;5093481;28;20103;-51
2023/09/08 04:43:57;;;;;;;15.00;11.93;;;;;;;;;;5095065;28;20107;-49
2023/09/08 04:46:23;;;;;;;15.32;12.38;;;;;;;;;;5099970;28;20070;-50
2023/09/08 04:48:49;;;;;;;15.95;12.25;;;;;;;;;;5102340;27;20075;-47
2023/09/08 04:51:15;;;;;;;20.27;12.75;;;;;;;;;;5133377;27;20453;-46
2023/09/08 04:53:41;;;;;;;17.70;12.23;;;;;;;;;;5116694;27;20030;-47
2023/09/08 04:56:07;;;;;;;13.65;11.82;;;;;;;;;;5095605;28;20370;-51
2023/09/08 04:58:33;;;;;;;17.45;12.10;;;;;;;;;;5122056;27;20023;-49
2023/09/08 05:00:59;;;;;;;12.95;10.68;;;;;;;;;;5093533;28;20028;-50
2023/09/08 05:03:26;;;;;;;12.95;11.55;;;;;;;;;;5093518;28;20047;-51
2023/09/08 05:05:52;;;;;;;13.02;11.77;;;;;;;;;;5105050;27;20023;-49
2023/09/08 05:08:18;;;;;;;12.70;11.50;;;;;;;;;;5110228;27;20028;-50
2023/09/08 05:10:44;;;;;;;14.98;11.95;;;;;;;;;;5092944;28;20304;-50
2023/09/08 05:13:11;;;;;;;15.00;10.93;;;;;;;;;;5093109;28;20028;-51
2023/09/08 05:15:38;;;;;;;18.92;12.00;;;;;;;;;;5092901;28;20035;-47
2023/09/08 05:18:04;;;;;;;17.38;12.23;;;;;;;;;;5093086;28;20027;-50
2023/09/08 05:20:30;;;;;;;13.60;11.20;;;;;;;;;;5092856;28;20024;-51
2023/09/08 05:22:56;;;;;;;17.80;11.75;;;;;;;;;;5105067;27;20027;-46
2023/09/08 05:25:23;;;;;;;12.77;11.20;;;;;;;;;;5109561;27;20044;-51
2023/09/08 05:27:49;;;;;;;12.85;11.40;;;;;;;;;;5092839;28;20016;-52
2023/09/08 05:30:15;;;;;;;13.00;11.70;;;;;;;;;;5093106;28;20102;-52
2023/09/08 05:32:41;;;;;;;15.68;11.32;;;;;;;;;;5093047;28;20132;-48
2023/09/08 05:35:07;;;;;;;14.35;11.15;;;;;;;;;;5093002;28;20020;-52
2023/09/08 05:37:33;;;;;;;13.05;11.18;;;;;;;;;;5091303;28;20505;-49
2023/09/08 05:39:59;;;;;;;16.60;11.75;;;;;;;;;;5092868;28;20012;-46
2023/09/08 05:42:25;;;;;;;17.80;12.30;;;;;;;;;;5092695;28;20028;-51
2023/09/08 05:44:51;;;;;;;18.40;11.73;;;;;;;;;;5092776;28;20107;-52
2023/09/08 05:47:17;;;;;;;14.90;12.50;;;;;;;;;;5092528;28;20052;-47
2023/09/08 05:49:43;;;;;;;14.15;11.38;;;;;;;;;;5092777;28;20024;-52
2023/09/08 05:52:09;;;;;;;13.77;11.18;;;;;;;;;;5092595;28;20031;-51
2023/09/08 05:54:35;;;;;;;16.52;11.93;;;;;;;;;;5092940;28;20055;-45
2023/09/08 05:57:01;;;;;;;16.90;12.77;;;;;;;;;;5107077;27;20073;-46
2023/09/08 05:59:27;;;;;;;15.57;12.32;;;;;;;;;;5114366;27;20040;-48
2023/09/08 06:01:53;;;;;;;18.50;13.73;;;;;;;;;;5096836;28;20016;-49
2023/09/08 06:04:19;;;;;;;17.83;12.55;;;;;;;;;;5096678;28;20020;-50
2023/09/08 06:06:45;;;;;;;21.85;12.38;;;;;;;;;;5096449;28;20376;-46
2023/09/08 06:09:12;;;;;;;14.30;12.80;;;;;;;;;;5096648;28;20027;-46
2023/09/08 06:11:38;;;;;;;18.80;12.93;;;;;;;;;;5096541;28;20027;-45
2023/09/08 06:14:04;;;;;;;19.65;13.15;;;;;;;;;;5096541;28;20020;-46
2023/09/08 06:16:30;;;;;;;17.23;13.40;;;;;;;;;;5096333;28;20028;-47
2023/09/08 06:18:56;;;;;;;17.00;12.63;;;;;;;;;;5098581;28;20026;-46
2023/09/08 06:21:22;;;;;;;21.15;14.70;;;;;;;;;;5114094;28;20028;-46
2023/09/08 06:23:48;;;;;;;20.05;14.10;;;;;;;;;;5108709;28;20358;-46
2023/09/08 06:26:14;;;;;;;19.38;14.20;;;;;;;;;;5097922;28;20103;-45
2023/09/08 06:28:43;;;;;;;20.45;15.15;;;;;;;;;;5096078;28;20195;-48
2023/09/08 06:31:09;;;;;;;20.10;15.20;;;;;;;;;;5095948;28;20020;-49
2023/09/08 06:33:35;;;;;;;26.13;16.38;;;;;;;;;;5096184;28;20474;-50
2023/09/08 06:36:01;;;;;;;20.45;17.38;;;;;;;;;;5095924;28;20154;-51
2023/09/08 06:38:27;;;;;;;22.38;16.70;;;;;;;;;;5103072;28;20079;-50
2023/09/08 06:40:53;;;;;;;24.55;16.70;;;;;;;;;;5103284;28;20031;-48
2023/09/08 06:43:19;;;;;;;21.58;17.15;;;;;;;;;;5095835;28;20370;-52
2023/09/08 06:45:49;;;;;;;22.83;15.98;;;;;;;;;;5095752;28;20028;-45
2023/09/08 06:48:16;;;;;;;23.77;18.25;;;;;;;;;;5095497;28;20066;-49
2023/09/08 06:50:42;;;;;;;24.00;16.85;;;;;;;;;;5105627;28;20028;-55
2023/09/08 06:53:07;;;;;;;23.48;17.48;;;;;;;;;;5099979;28;20043;-49
2023/09/08 06:55:34;;;;;;;19.05;17.05;;;;;;;;;;5090001;28;20024;-51
2023/09/08 06:58:00;;;;;;;23.85;18.40;;;;;;;;;;5091072;28;20070;-48
2023/09/08 07:00:26;;;;;;;21.50;16.80;;;;;;;;;;5096198;28;20035;-47
2023/09/08 07:02:52;;;;;;;21.30;17.48;;;;;;;;;;5095660;28;20032;-52
2023/09/08 07:05:19;;;;;;;19.95;16.63;;;;;;;;;;5095586;28;20369;-47
2023/09/08 07:07:45;;;;;;;19.27;15.63;;;;;;;;;;5097084;28;20032;-47
2023/09/08 07:10:11;;;;;;;23.23;16.30;;;;;;;;;;5128250;27;20022;-45
2023/09/08 07:12:37;;;;;;;25.67;16.40;;;;;;;;;;5095181;28;20040;-49
2023/09/08 07:15:03;;;;;;;24.98;17.45;;;;;;;;;;5095206;28;20028;-52
2023/09/08 07:17:30;;;;;;;20.88;15.50;;;;;;;;;;5095383;28;20031;-49
2023/09/08 07:19:56;;;;;;;26.02;16.55;;;;;;;;;;5095236;28;20027;-52
2023/09/08 07:22:21;;;;;;;20.60;15.63;;;;;;;;;;5095344;28;20024;-48
2023/09/08 07:24:48;;;;;;;17.15;13.73;;;;;;;;;;5095043;28;20024;-51
2023/09/08 07:27:14;;;;;;;17.23;11.80;;;;;;;;;;5094990;28;20043;-45
2023/09/08 07:29:40;;;;;;;18.52;11.77;;;;;;;;;;5111570;27;20029;-46
2023/09/08 07:32:07;;;;;;;17.42;9.85;;;;;;;;;;5106830;27;20046;-52
2023/09/08 07:34:33;;;;;;;14.75;8.65;;;;;;;;;;5107989;28;20032;-48
2023/09/08 07:37:00;;;;;;;12.00;7.57;;;;;;;;;;5095263;28;20024;-52
2023/09/08 07:39:26;;;;;;;11.60;8.30;;;;;;;;;;5095022;28;20017;-52
2023/09/08 07:41:53;;;;;;;12.40;7.15;;;;;;;;;;5096227;28;20035;-50
2023/09/08 07:44:19;;;;;;;9.40;6.93;;;;;;;;;;5094584;28;20405;-45
2023/09/08 07:46:48;;;;;;;12.68;7.20;;;;;;;;;;5094600;28;20505;-47
2023/09/08 07:49:15;;;;;;;12.07;7.20;;;;;;;;;;5094640;28;20032;-50
2023/09/08 07:51:41;;;;;;;8.32;5.82;;;;;;;;;;5094500;28;20064;-52
2023/09/08 07:54:07;;;;;;;6.82;6.10;;;;;;;;;;5094622;28;20096;-45
2023/09/08 07:56:33;;;;;;;7.20;5.85;;;;;;;;;;5097189;27;20055;-49
2023/09/08 07:58:59;;;;;;;7.30;5.35;;;;;;;;;;5109222;28;20376;-52
2023/09/08 08:01:25;;;;;;;6.80;5.30;;;;;;;;;;5101143;28;20032;-51
2023/09/08 08:03:51;;;;;;;6.10;5.03;;;;;;;;;;5096284;28;20064;-46
2023/09/08 08:06:17;;;;;;;9.70;5.00;;;;;;;;;;5102925;28;20028;-51
2023/09/08 08:08:43;;;;;;;8.55;4.50;;;;;;;;;;5094173;28;20020;-52
2023/09/08 08:11:13;;;;;;;5.05;4.55;;;;;;;;;;5094370;28;20119;-46
2023/09/08 08:13:39;;;;;;;5.75;4.75;;;;;;;;;;5093940;28;20027;-47
2023/09/08 08:16:05;;;;;;;7.10;4.90;;;;;;;;;;5111149;27;20011;-50
2023/09/08 08:18:31;;;;;;;6.90;5.10;;;;;;;;;;5105258;27;20069;-49
2023/09/08 08:20:57;;;;;;;7.53;5.13;;;;;;;;;;5121058;27;20099;-46
2023/09/08 08:23:23;;;;;;;5.60;5.10;;;;;;;;;;5093656;28;20444;-49
2023/09/08 08:25:50;;;;;;;7.25;5.15;;;;;;;;;;5075559;28;20052;-47
2023/09/08 08:28:16;;;;;;;11.13;4.93;;;;;;;;;;5093589;28;20024;-46
2023/09/08 08:30:42;;;;;;;6.55;5.63;;;;;;;;;;5113808;28;20381;-43
2023/09/08 08:33:08;;;;;;;6.38;5.20;;;;;;;;;;5092372;28;20030;-48
2023/09/08 08:35:34;;;;;;;9.30;5.95;;;;;;;;;;5086618;28;20031;-53
2023/09/08 08:38:00;;;;;;;5.43;4.57;;;;;;;;;;5093603;28;20028;-48
2023/09/08 08:40:26;;;;;;;5.57;5.00;;;;;;;;;;5093983;28;20070;-47
2023/09/08 08:42:56;;;;;;;6.05;4.85;;;;;;;;;;5093554;28;20027;-48
2023/09/08 08:45:25;;;;;;;5.80;5.30;;;;;;;;;;5107617;28;20020;-45
2023/09/08 08:47:52;;;;;;;7.45;5.55;;;;;;;;;;5093454;28;20082;-45
2023/09/08 08:50:18;;;;;;;7.28;5.90;;;;;;;;;;5093707;28;20012;-47
2023/09/08 08:52:44;;;;;;;6.57;4.57;;;;;;;;;;5093697;28;20089;-49
2023/09/08 08:55:10;;;;;;;6.47;4.55;;;;;;;;;;5093288;28;20024;-48
2023/09/08 09:00:40;;;;;;;7.55;4.85;;;;;;;;;;5096952;28;20038;-51
2023/09/08 09:03:06;;;;;;;5.55;5.05;;;;;;;;;;5093437;28;20024;-46
2023/09/08 09:05:33;;;;;;;4.85;4.45;;;;;;;;;;5093188;28;20140;-46
2023/09/08 09:08:03;;;;;;;7.13;4.75;;;;;;;;;;5093473;28;20489;-46
2023/09/08 09:10:29;;;;;;;5.78;5.28;;;;;;;;;;5110356;28;20027;-48
2023/09/08 09:12:55;;;;;;;6.60;5.30;;;;;;;;;;5103348;28;20390;-49
2023/09/08 09:15:28;;;;;;;5.45;4.63;;;;;;;;;;5097360;27;20028;-47
2023/09/08 09:18:07;;;;;;;5.72;4.70;;;;;;;;;;5115060;27;20099;-46
2023/09/08 09:20:33;;;;;;;5.65;5.05;;;;;;;;;;5092998;28;20027;-48
2023/09/08 09:22:59;;;;;;;5.82;4.90;;;;;;;;;;5095143;28;20019;-49
2023/09/08 09:25:27;;;;;;;9.27;5.43;;;;;;;;;;5097912;28;20073;-46
2023/09/08 09:27:53;;;;;;;5.45;5.05;;;;;;;;;;5095168;28;20034;-50
2023/09/08 09:30:20;;;;;;;8.40;5.75;;;;;;;;;;5093617;28;20385;-48
2023/09/08 09:32:46;;;;;;;7.35;5.65;;;;;;;;;;5092931;28;20039;-50
2023/09/08 09:35:12;;;;;;;7.93;5.07;;;;;;;;;;5093315;28;20370;-50
2023/09/08 09:37:41;;;;;;;7.75;5.60;;;;;;;;;;5092883;28;20089;-52
2023/09/08 09:40:07;;;;;;;6.75;5.20;;;;;;;;;;5093006;28;20052;-54
2023/09/08 09:42:33;;;;;;;6.93;4.97;;;;;;;;;;5092727;28;20028;-53
2023/09/08 09:45:01;;;;;;;7.07;5.25;;;;;;;;;;5093009;28;20077;-52
2023/09/08 09:47:27;;;;;;;5.93;4.43;;;;;;;;;;5092442;28;20044;-47
2023/09/08 09:49:53;;;;;;;6.05;5.40;;;;;;;;;;5093001;28;20022;-49
2023/09/08 09:52:25;;;;;;;5.90;4.75;;;;;;;;;;5092934;28;20161;-46
2023/09/08 09:54:53;;;;;;;8.77;5.22;;;;;;;;;;5094879;28;20020;-51
2023/09/08 09:57:20;;;;;;;5.43;4.90;;;;;;;;;;5109839;28;20425;-50
2023/09/08 09:59:49;;;;;;;8.38;5.00;;;;;;;;;;5104836;28;20043;-47
2023/09/08 10:02:15;;;;;;;5.78;5.15;;;;;;;;;;5092685;28;20055;-50
2023/09/08 10:04:42;;;;;;;5.38;4.88;;;;;;;;;;5093029;28;20047;-50
2023/09/08 10:07:08;;;;;;;6.35;4.97;;;;;;;;;;5092486;28;20120;-52
2023/09/08 10:09:36;;;;;;;7.55;5.10;;;;;;;;;;5092952;28;20382;-51
2023/09/08 10:12:06;;;;;;;6.63;5.95;;;;;;;;;;5121113;28;20031;-49
2023/09/08 10:14:41;;;;;;;6.47;5.78;;;;;;;;;;5094476;28;20015;-51
2023/09/08 10:17:09;;;;;;;6.72;5.20;;;;;;;;;;5109995;28;20034;-48
2023/09/08 10:19:41;;;;;;;6.43;5.65;;;;;;;;;;5092867;28;20020;-45
2023/09/08 10:22:08;;;;;;;7.97;5.97;;;;;;;;;;5092643;28;20024;-47
2023/09/08 10:24:35;;;;;;;8.50;5.53;;;;;;;;;;5094561;28;20035;-48
2023/09/08 10:27:07;;;;;;;7.97;5.60;;;;;;;;;;5094224;28;20020;-46
2023/09/08 10:29:33;;;;;;;9.82;5.50;;;;;;;;;;5092472;28;20024;-47
2023/09/08 10:32:00;;;;;;;6.88;5.47;;;;;;;;;;5094450;28;20039;-49
2023/09/08 10:34:26;;;;;;;6.20;5.53;;;;;;;;;;5093279;28;20024;-51
2023/09/08 10:36:53;;;;;;;8.93;6.18;;;;;;;;;;5092652;28;20020;-52
2023/09/08 10:39:30;;;;;;;7.90;5.65;;;;;;;;;;5092262;28;20090;-47
2023/09/08 10:42:15;;;;;;;7.72;5.47;;;;;;;;;;5093940;28;20386;-46
2023/09/08 10:44:41;;;;;;;6.95;5.20;;;;;;;;;;5095728;28;20527;-49
2023/09/08 10:47:07;;;;;;;5.75;5.25;;;;;;;;;;5096049;28;20048;-51
2023/09/08 10:49:37;;;;;;;5.85;5.28;;;;;;;;;;5095911;28;20056;-47
2023/09/08 10:52:08;;;;;;;5.63;4.85;;;;;;;;;;5096100;28;20028;-50
2023/09/08 10:55:03;;;;;;;5.97;5.38;;;;;;;;;;5095679;28;20128;-49
2023/09/08 10:57:32;;;;;;;6.35;5.72;;;;;;;;;;5101579;27;20432;-52
2023/09/08 11:00:00;;;;;;;9.30;5.50;;;;;;;;;;5110057;27;20597;-49
2023/09/08 11:02:32;;;;;;;6.97;5.75;;;;;;;;;;5104122;28;20382;-46
2023/09/08 11:04:58;;;;;;;6.55;5.90;;;;;;;;;;5095491;28;20024;-49
2023/09/08 11:07:25;;;;;;;6.95;5.40;;;;;;;;;;5086916;28;20020;-48
2023/09/08 11:09:51;;;;;;;6.75;6.05;;;;;;;;;;5095349;28;20032;-52
2023/09/08 11:12:17;;;;;;;7.90;6.00;;;;;;;;;;5095395;28;20430;-51
2023/09/08 11:14:44;;;;;;;6.43;5.82;;;;;;;;;;5095186;28;20042;-48
2023/09/08 11:17:10;;;;;;;8.02;5.55;;;;;;;;;;5090472;28;20060;-52
2023/09/08 11:19:49;;;;;;;8.25;6.28;;;;;;;;;;5095229;28;20028;-48
2023/09/08 11:22:16;;;;;;;7.63;6.43;;;;;;;;;;5095307;28;20031;-48
2023/09/08 11:24:42;;;;;;;6.63;5.93;;;;;;;;;;5095186;28;20047;-52
2023/09/08 11:27:09;;;;;;;6.47;5.88;;;;;;;;;;5109309;28;20382;-47
2023/09/08 11:29:35;;;;;;;7.47;6.18;;;;;;;;;;5095045;28;20482;-48
2023/09/08 11:32:03;;;;;;;9.98;6.45;;;;;;;;;;5094820;28;20497;-47
2023/09/08 11:34:29;;;;;;;11.13;6.85;;;;;;;;;;5104701;28;20077;-49
2023/09/08 11:36:55;;;;;;;7.05;6.35;;;;;;;;;;5113691;28;20487;-46
2023/09/08 11:39:25;;;;;;;7.70;6.43;;;;;;;;;;5094878;28;20028;-45
2023/09/08 11:41:51;;;;;;;6.53;5.93;;;;;;;;;;5095046;28;20527;-47
2023/09/08 11:44:18;;;;;;;7.53;6.18;;;;;;;;;;5094716;28;20020;-44
2023/09/08 11:46:45;;;;;;;7.20;6.15;;;;;;;;;;5107784;28;20424;-46
2023/09/08 11:49:11;;;;;;;7.05;6.45;;;;;;;;;;5095757;28;20024;-50
2023/09/08 11:51:37;;;;;;;8.02;5.78;;;;;;;;;;5109965;27;20519;-46
2023/09/08 11:54:04;;;;;;;8.25;6.05;;;;;;;;;;5113663;27;20039;-45
2023/09/08 11:56:31;;;;;;;11.13;6.15;;;;;;;;;;5114192;28;20342;-46
2023/09/08 12:05:04;;;;;;;7.20;5.78;;;;;;;;;;5102269;28;20148;-45
2023/09/08 12:07:31;;;;;;;6.90;5.65;;;;;;;;;;5114713;27;20105;-47
2023/09/08 12:09:58;;;;;;;8.75;5.88;;;;;;;;;;5105699;27;20085;-47
2023/09/08 12:12:24;;;;;;;9.82;6.30;;;;;;;;;;5118759;27;20040;-50
2023/09/08 12:14:50;;;;;;;7.85;6.35;;;;;;;;;;5094556;28;20056;-50
2023/09/08 12:17:18;;;;;;;5.65;4.95;;;;;;;;;;5096264;28;20020;-52
2023/09/08 12:19:44;;;;;;;6.35;5.80;;;;;;;;;;5102011;28;20033;-47
2023/09/08 12:22:17;;;;;;;7.38;5.65;;;;;;;;;;5094233;28;20027;-50
2023/09/08 12:25:02;;;;;;;6.90;6.30;;;;;;;;;;5093933;28;20035;-46
2023/09/08 12:27:28;;;;;;;7.97;5.97;;;;;;;;;;5105694;27;20034;-48
2023/09/08 12:29:54;;;;;;;6.28;5.68;;;;;;;;;;5111136;27;20035;-52
2023/09/08 12:32:21;;;;;;;7.53;6.07;;;;;;;;;;5095763;28;20409;-46
2023/09/08 12:34:46;;;;;;;6.55;5.88;;;;;;;;;;5104499;28;20107;-46
2023/09/08 12:37:13;;;;;;;8.85;5.93;;;;;;;;;;5093604;28;20111;-49
2023/09/08 12:39:39;;;;;;;7.50;6.80;;;;;;;;;;5093804;28;20358;-46
2023/09/08 12:42:05;;;;;;;7.90;6.47;;;;;;;;;;5093809;28;20046;-50
2023/09/08 12:44:31;;;;;;;7.38;6.40;;;;;;;;;;5105981;27;20051;-49
2023/09/08 12:46:57;;;;;;;7.68;6.78;;;;;;;;;;5109567;27;20402;-47
2023/09/08 12:49:23;;;;;;;7.45;6.78;;;;;;;;;;5093611;28;20426;-51
2023/09/08 12:51:49;;;;;;;7.45;6.75;;;;;;;;;;5093395;28;20123;-52
2023/09/08 12:54:15;;;;;;;9.25;7.72;;;;;;;;;;5093721;28;20024;-53
2023/09/08 12:57:00;;;;;;;7.97;7.18;;;;;;;;;;5093396;28;20073;-52
2023/09/08 12:59:26;;;;;;;8.77;7.68;;;;;;;;;;5093340;28;20070;-51
2023/09/08 13:01:52;;;;;;;8.82;8.13;;;;;;;;;;5109154;27;20454;-50
2023/09/08 13:04:19;;;;;;;8.32;7.50;;;;;;;;;;5105712;27;20035;-52
2023/09/08 13:06:45;;;;;;;8.15;7.57;;;;;;;;;;5093545;28;20043;-50
2023/09/08 13:09:11;;;;;;;8.13;7.43;;;;;;;;;;5093255;28;20030;-51
2023/09/08 13:11:37;;;;;;;9.27;7.25;;;;;;;;;;5101502;27;20361;-50
2023/09/08 13:14:03;;;;;;;8.70;8.10;;;;;;;;;;5113319;27;20047;-47
2023/09/08 13:16:29;;;;;;;9.10;8.32;;;;;;;;;;5093025;28;20024;-45
2023/09/08 13:18:55;;;;;;;11.55;8.13;;;;;;;;;;5093200;28;20020;-46
2023/09/08 13:21:21;;;;;;;7.65;7.10;;;;;;;;;;5095170;28;20473;-46
2023/09/08 13:27:00;;;;;;;9.15;8.35;;;;;;;;;;5103809;28;20070;-45
2023/09/08 13:29:51;;;;;;;8.50;7.85;;;;;;;;;;5097325;28;20070;-45
2023/09/08 13:32:17;;;;;;;10.40;7.90;;;;;;;;;;5092926;28;20038;-46
2023/09/08 13:34:43;;;;;;;12.32;11.13;;;;;;;;;;5093264;28;20024;-48
2023/09/08 13:37:09;;;;;;;9.85;9.18;;;;;;;;;;5092845;28;20095;-46
2023/09/08 13:39:35;;;;;;;9.23;8.52;;;;;;;;;;5093168;28;20054;-48
2023/09/08 13:42:02;;;;;;;9.15;8.35;;;;;;;;;;5092858;28;20016;-47
2023/09/08 13:44:28;;;;;;;9.23;8.35;;;;;;;;;;5092765;28;20028;-45
2023/09/08 13:46:55;;;;;;;9.82;8.90;;;;;;;;;;5092550;28;20363;-49
2023/09/08 13:49:21;;;;;;;8.27;7.70;;;;;;;;;;5090560;28;20050;-51
2023/09/08 13:51:47;;;;;;;9.85;9.05;;;;;;;;;;5099998;28;20367;-47
2023/09/08 13:54:13;;;;;;;8.52;7.78;;;;;;;;;;5092669;28;20027;-46
2023/09/08 13:56:40;;;;;;;8.10;7.50;;;;;;;;;;5094753;28;20028;-48
2023/09/08 13:59:06;;;;;;;8.75;8.15;;;;;;;;;;5092158;28;20020;-49
2023/09/08 14:01:38;;;;;;;9.35;8.55;;;;;;;;;;5103164;28;20226;-48
2023/09/08 14:04:06;;;;;;;8.93;8.23;;;;;;;;;;5109234;28;20021;-45
2023/09/08 14:06:32;;;;;;;8.98;8.27;;;;;;;;;;5092604;28;20470;-45
2023/09/08 14:08:58;;;;;;;8.23;7.63;;;;;;;;;;5092780;28;20035;-50
2023/09/08 14:11:24;;;;;;;8.27;7.57;;;;;;;;;;5092445;28;20233;-46
2023/09/08 14:13:50;;;;;;;8.63;7.90;;;;;;;;;;5092549;28;20016;-51
2023/09/08 14:16:18;;;;;;;8.25;7.80;;;;;;;;;;5092968;28;20123;-49
2023/09/08 14:18:44;;;;;;;8.25;7.43;;;;;;;;;;5096747;28;20027;-47
2023/09/08 14:21:10;;;;;;;9.32;7.40;;;;;;;;;;5096435;28;20028;-49
2023/09/08 14:23:38;;;;;;;7.70;7.10;;;;;;;;;;5096392;28;20024;-51
2023/09/08 14:26:04;;;;;;;8.80;7.50;;;;;;;;;;5096391;28;20024;-48
2023/09/08 14:28:32;;;;;;;8.82;7.50;;;;;;;;;;5096249;28;20107;-51
2023/09/08 14:30:58;;;;;;;7.68;7.07;;;;;;;;;;5096194;28;20031;-46
2023/09/08 14:33:24;;;;;;;7.88;6.90;;;;;;;;;;5096759;28;20085;-53
2023/09/08 14:35:51;;;;;;;8.95;7.63;;;;;;;;;;5098313;28;20461;-51
2023/09/08 14:38:20;;;;;;;7.90;7.22;;;;;;;;;;5102554;28;20023;-48
2023/09/08 14:40:54;;;;;;;10.00;7.38;;;;;;;;;;5108304;27;20050;-47